createdAt,value
2023-03-20T00:02:28.428Z,100690.31
2023-03-20T00:04:57.139Z,100678.84
2023-03-20T00:07:26.527Z,100680.69
2023-03-20T00:09:57.832Z,100677.19
2023-03-20T00:12:27.968Z,100678.06
2023-03-20T00:14:56.865Z,100680.69
2023-03-20T00:17:25.617Z,100676.22
2023-03-20T00:19:54.370Z,100671.00
2023-03-20T00:22:23.409Z,100679.81
2023-03-20T00:24:52.173Z,100673.56
2023-03-20T00:27:21.047Z,100670.88
2023-03-20T00:29:53.023Z,100672.63
2023-03-20T00:32:22.328Z,100674.41
2023-03-20T00:34:51.052Z,100670.00
2023-03-20T00:37:19.806Z,100671.75
2023-03-20T00:39:48.477Z,100670.88
2023-03-20T00:42:23.170Z,100675.31
2023-03-20T00:44:55.890Z,100677.97
2023-03-20T00:47:28.568Z,100673.59
2023-03-20T00:49:58.074Z,100674.53
2023-03-20T00:52:27.558Z,100673.66
2023-03-20T00:54:56.331Z,100666.59
2023-03-20T00:57:27.768Z,100671.03
2023-03-20T01:00:01.504Z,100668.38
2023-03-20T01:02:31.647Z,100667.47
2023-03-20T01:05:03.612Z,100664.84
2023-03-20T01:07:32.556Z,100674.56
2023-03-20T01:10:01.318Z,100666.63
2023-03-20T01:12:30.320Z,100667.53
2023-03-20T01:15:01.150Z,100668.41
2023-03-20T01:17:30.986Z,100660.47
2023-03-20T01:19:59.764Z,100660.50
2023-03-20T01:22:28.546Z,100667.56
2023-03-20T01:24:57.478Z,100666.72
2023-03-20T01:27:26.214Z,100670.28
2023-03-20T01:29:54.980Z,100665.88
2023-03-20T01:32:25.552Z,100671.22
2023-03-20T01:34:54.654Z,100667.66
2023-03-20T01:37:27.070Z,100662.41
2023-03-20T01:39:58.588Z,100659.78
2023-03-20T01:42:28.779Z,100663.28
2023-03-20T01:44:57.504Z,100664.19
2023-03-20T01:47:30.197Z,100658.91
2023-03-20T01:50:30.883Z,100658.13
2023-03-20T01:53:09.301Z,100660.81
2023-03-20T01:55:45.545Z,100658.31
2023-03-20T01:58:19.742Z,100661.91
2023-03-20T02:00:49.958Z,100652.22
2023-03-20T02:03:59.188Z,100662.81
2023-03-20T02:06:48.385Z,100661.13
2023-03-20T02:09:53.025Z,100657.59
2023-03-20T02:12:29.511Z,100659.38
2023-03-20T02:14:58.942Z,100655.84
2023-03-20T02:18:03.197Z,100664.69
2023-03-20T02:20:55.985Z,100660.28
2023-03-20T02:23:59.053Z,100665.66
2023-03-20T02:26:48.077Z,100658.69
2023-03-20T02:30:01.277Z,100664.91
2023-03-20T02:33:07.906Z,100664.06
2023-03-20T02:36:16.618Z,100664.13
2023-03-20T02:39:22.793Z,100664.13
2023-03-20T02:42:01.536Z,100665.91
2023-03-20T02:44:42.186Z,100665.91
2023-03-20T02:47:18.179Z,100660.59
2023-03-20T02:49:59.053Z,100658.00
2023-03-20T02:52:43.056Z,100657.09
2023-03-20T02:55:20.164Z,100655.38
2023-03-20T02:57:59.844Z,100597.06
2023-03-20T03:00:35.615Z,100651.03
2023-03-20T03:03:13.205Z,100651.97
2023-03-20T03:05:46.854Z,100648.50
2023-03-20T03:08:19.561Z,100648.56
2023-03-20T03:10:54.136Z,100645.09
2023-03-20T03:13:29.126Z,100645.97
2023-03-20T03:16:05.579Z,100645.16
2023-03-20T03:18:36.991Z,100572.78
2023-03-20T03:21:08.796Z,100654.94
2023-03-20T03:23:44.677Z,100654.97
2023-03-20T03:26:19.917Z,100651.47
2023-03-20T03:28:52.777Z,100652.44
2023-03-20T03:31:23.104Z,100648.06
2023-03-20T03:33:54.217Z,100641.88
2023-03-20T03:36:33.995Z,100646.31
2023-03-20T03:39:12.694Z,100651.59
2023-03-20T03:41:46.964Z,100648.97
2023-03-20T03:44:23.736Z,100553.91
2023-03-20T03:46:57.934Z,100654.25
2023-03-20T03:49:32.115Z,100643.69
2023-03-20T03:52:06.863Z,100648.09
2023-03-20T03:54:42.587Z,100479.00
2023-03-20T03:57:50.608Z,100649.09
2023-03-20T04:00:25.075Z,100642.09
2023-03-20T04:02:56.827Z,100641.22
2023-03-20T04:05:31.428Z,100650.09
2023-03-20T04:08:02.795Z,100643.94
2023-03-20T04:10:31.645Z,100651.88
2023-03-20T04:13:01.851Z,100658.97
2023-03-20T04:15:30.636Z,100647.59
2023-03-20T04:17:59.492Z,100651.13
2023-03-20T04:20:29.596Z,100654.66
2023-03-20T04:22:58.512Z,100658.25
2023-03-20T04:25:28.744Z,100656.56
2023-03-20T04:28:01.363Z,100666.31
2023-03-20T04:30:54.396Z,100660.25
2023-03-20T04:33:39.723Z,100656.81
2023-03-20T04:36:43.477Z,100667.44
2023-03-20T04:39:14.878Z,100665.75
2023-03-20T04:41:43.745Z,100671.06
2023-03-20T04:44:14.264Z,100665.78
2023-03-20T04:46:46.180Z,100670.16
2023-03-20T04:49:19.216Z,100678.03
2023-03-20T04:51:48.840Z,100686.78
2023-03-20T04:54:22.426Z,100678.78
2023-03-20T04:56:51.249Z,100688.41
2023-03-20T04:59:25.327Z,100688.31
2023-03-20T05:01:54.100Z,100689.19
2023-03-20T05:04:24.857Z,100692.66
2023-03-20T05:06:53.575Z,100692.59
2023-03-20T05:09:25.422Z,100697.88
2023-03-20T05:11:55.496Z,100701.41
2023-03-20T05:14:44.345Z,100708.41
2023-03-20T05:17:45.300Z,100718.94
2023-03-20T05:20:23.220Z,100706.56
2023-03-20T05:22:59.855Z,100709.16
2023-03-20T05:26:00.925Z,100710.81
2023-03-20T05:28:48.024Z,100710.84
2023-03-20T05:31:40.131Z,100713.47
2023-03-20T05:34:29.054Z,100716.06
2023-03-20T05:37:11.470Z,100715.16
2023-03-20T05:39:58.886Z,100723.88
2023-03-20T05:42:45.916Z,100714.13
2023-03-20T05:45:41.233Z,100718.47
2023-03-20T05:48:26.524Z,100729.06
2023-03-20T05:51:21.558Z,100732.59
2023-03-20T05:53:56.349Z,100732.56
2023-03-20T05:56:43.317Z,100735.97
2023-03-20T05:59:26.676Z,100733.31
2023-03-20T06:02:33.957Z,100727.00
2023-03-20T06:05:13.057Z,100740.06
2023-03-20T06:07:48.141Z,100734.66
2023-03-20T06:10:20.113Z,100731.03
2023-03-20T06:12:51.463Z,100737.97
2023-03-20T06:15:25.820Z,100734.28
2023-03-20T06:18:01.388Z,100734.97
2023-03-20T06:20:32.140Z,100741.09
2023-03-20T06:23:05.339Z,100748.03
2023-03-20T06:25:34.850Z,100747.94
2023-03-20T06:28:04.921Z,100748.59
2023-03-20T06:30:34.035Z,100762.50
2023-03-20T06:33:03.549Z,100751.88
2023-03-20T06:35:41.642Z,100750.84
2023-03-20T06:38:10.980Z,100755.94
2023-03-20T06:40:42.395Z,100764.59
2023-03-20T06:43:12.467Z,100761.00
2023-03-20T06:45:48.543Z,100756.41
2023-03-20T06:48:26.339Z,100758.94
2023-03-20T06:50:57.250Z,100760.44
2023-03-20T06:53:33.544Z,100762.00
2023-03-20T06:56:08.567Z,100764.38
2023-03-20T06:58:37.273Z,100760.66
2023-03-20T07:01:11.429Z,100767.59
2023-03-20T07:03:40.387Z,100763.06
2023-03-20T07:06:16.445Z,100768.09
2023-03-20T07:08:45.764Z,100768.00
2023-03-20T07:14:05.650Z,100770.25
2023-03-20T07:16:46.469Z,100777.16
2023-03-20T07:19:18.038Z,100708.91
2023-03-20T07:21:51.059Z,100782.78
2023-03-20T07:24:20.069Z,100787.81
2023-03-20T07:26:48.771Z,100792.94
2023-03-20T07:29:17.674Z,100786.47
2023-03-20T07:31:47.527Z,100782.47
2023-03-20T07:34:24.546Z,100783.00
2023-03-20T07:36:56.409Z,100778.34
2023-03-20T07:39:25.165Z,100788.06
2023-03-20T07:42:09.236Z,100794.28
2023-03-20T07:44:45.283Z,100806.53
2023-03-20T07:47:14.018Z,100802.75
2023-03-20T07:49:42.761Z,100802.75
2023-03-20T07:52:15.483Z,100810.19
2023-03-20T07:54:44.235Z,100804.31
2023-03-20T07:57:13.144Z,100803.47
2023-03-20T07:59:41.914Z,100805.16
2023-03-20T08:02:16.240Z,100796.69
2023-03-20T08:04:46.408Z,100812.25
2023-03-20T08:07:16.854Z,100816.34
2023-03-20T08:09:45.723Z,100811.91
2023-03-20T08:12:14.751Z,100816.34
2023-03-20T08:14:44.237Z,100806.38
2023-03-20T08:17:16.165Z,100810.44
2023-03-20T08:19:46.572Z,100810.06
2023-03-20T08:22:16.726Z,100810.31
2023-03-20T08:24:45.514Z,100810.28
2023-03-20T08:27:14.449Z,100807.47
2023-03-20T08:29:43.292Z,100822.28
2023-03-20T08:32:12.012Z,100831.19
2023-03-20T08:34:40.812Z,100829.06
2023-03-20T08:37:09.969Z,100802.28
2023-03-20T08:39:40.262Z,100828.91
2023-03-20T08:42:09.026Z,100824.78
2023-03-20T08:44:37.514Z,100822.69
2023-03-20T08:47:07.657Z,100827.25
2023-03-20T08:49:36.951Z,100833.41
2023-03-20T08:52:07.016Z,100833.38
2023-03-20T08:54:35.905Z,100829.56
2023-03-20T08:57:06.151Z,100831.81
2023-03-20T08:59:34.581Z,100834.81
2023-03-20T09:02:03.574Z,100829.69
2023-03-20T09:04:31.955Z,100842.84
2023-03-20T09:07:01.278Z,100843.88
2023-03-20T09:09:30.375Z,100842.84
2023-03-20T09:11:59.996Z,100844.44
2023-03-20T09:14:30.895Z,100844.03
2023-03-20T09:16:59.905Z,100821.97
2023-03-20T09:19:30.582Z,100849.72
2023-03-20T09:21:59.820Z,100842.69
2023-03-20T09:24:29.474Z,100848.63
2023-03-20T09:26:58.646Z,100846.44
2023-03-20T09:29:27.440Z,100851.34
2023-03-20T09:31:57.732Z,100851.75
2023-03-20T09:34:26.515Z,100850.50
2023-03-20T09:37:12.450Z,100856.81
2023-03-20T09:43:25.295Z,100842.75
2023-03-20T09:46:01.309Z,100846.34
2023-03-20T09:48:36.385Z,100837.56
2023-03-20T09:51:17.327Z,100835.25
2023-03-20T09:53:53.804Z,100843.03
2023-03-20T09:56:28.423Z,100865.88
2023-03-20T09:58:59.664Z,100863.78
2023-03-20T10:27:07.229Z,100874.25
2023-03-20T10:29:49.141Z,100873.94
2023-03-20T10:32:26.619Z,100872.94
2023-03-20T10:35:06.831Z,100867.28
2023-03-20T10:37:51.398Z,100866.41
2023-03-20T10:40:32.195Z,100866.28
2023-03-20T10:43:07.585Z,100866.31
2023-03-20T10:45:42.211Z,100860.66
2023-03-20T10:48:21.925Z,100859.53
2023-03-20T10:50:54.925Z,100870.50
2023-03-20T10:53:35.709Z,100869.81
2023-03-20T10:56:08.920Z,100875.00
2023-03-20T11:03:26.326Z,100879.78
2023-03-20T11:07:40.844Z,100887.25
2023-03-20T11:11:08.751Z,100888.41
2023-03-20T11:13:40.450Z,100879.56
2023-03-20T11:16:33.098Z,100881.53
2023-03-20T11:19:08.486Z,100882.47
2023-03-20T11:21:46.250Z,100874.75
2023-03-20T11:24:26.986Z,100875.84
2023-03-20T11:27:05.269Z,100878.84
2023-03-20T11:29:35.944Z,100837.94
2023-03-20T11:32:17.981Z,100870.00
2023-03-20T11:34:47.800Z,100871.84
2023-03-20T11:37:27.146Z,100869.19
2023-03-20T11:39:59.902Z,100874.50
2023-03-20T11:42:31.536Z,100870.03
2023-03-20T11:45:02.814Z,100864.72
2023-03-20T11:47:35.733Z,100864.41
2023-03-20T11:50:07.256Z,100864.47
2023-03-20T11:52:38.383Z,100867.94
2023-03-20T11:55:24.844Z,100879.31
2023-03-20T11:57:59.046Z,100879.25
2023-03-20T12:00:36.962Z,100874.06
2023-03-20T12:03:33.914Z,100879.56
2023-03-20T12:06:02.832Z,100862.09
2023-03-20T12:08:33.622Z,100874.13
2023-03-20T12:11:10.907Z,100866.13
2023-03-20T12:13:44.660Z,100863.31
2023-03-20T12:16:18.538Z,100859.78
2023-03-20T12:18:53.327Z,100865.88
2023-03-20T12:21:28.271Z,100860.94
2023-03-20T12:24:03.081Z,100865.78
2023-03-20T12:26:37.245Z,100863.16
2023-03-20T12:29:12.159Z,100876.63
2023-03-20T12:31:47.864Z,100874.25
2023-03-20T12:34:25.248Z,100864.09
2023-03-20T12:36:57.569Z,100872.56
2023-03-20T12:39:29.635Z,100869.66
2023-03-20T12:42:10.673Z,100868.53
2023-03-20T12:44:47.888Z,100870.47
2023-03-20T12:47:36.168Z,100868.09
2023-03-20T12:50:17.828Z,100866.78
2023-03-20T12:52:53.039Z,100866.38
2023-03-20T12:55:29.673Z,100867.19
2023-03-20T12:58:12.062Z,100861.88
2023-03-20T13:00:49.810Z,100845.16
2023-03-20T13:03:41.246Z,100839.09
2023-03-20T13:06:18.007Z,100840.06
2023-03-20T13:09:19.155Z,100846.28
2023-03-20T13:11:56.482Z,100845.81
2023-03-20T13:14:34.245Z,100849.44
2023-03-20T13:17:17.310Z,100850.84
2023-03-20T13:19:53.404Z,100844.59
2023-03-20T13:22:38.981Z,100820.94
2023-03-20T13:25:29.963Z,100843.88
2023-03-20T13:28:04.661Z,100836.00
2023-03-20T13:30:38.722Z,100830.13
2023-03-20T13:33:27.160Z,100817.06
2023-03-20T13:36:01.821Z,100813.03
2023-03-20T13:38:36.258Z,100817.03
2023-03-20T13:41:10.008Z,100813.06
2023-03-20T13:43:44.281Z,100817.22
2023-03-20T13:46:17.703Z,100808.06
2023-03-20T13:48:47.750Z,100810.16
2023-03-20T13:51:27.684Z,100804.53
2023-03-20T13:54:14.745Z,100807.41
2023-03-20T13:56:54.513Z,100803.59
2023-03-20T13:59:48.933Z,100807.69
2023-03-20T14:02:36.782Z,100818.59
2023-03-20T14:05:12.275Z,100819.47
2023-03-20T14:07:45.156Z,100816.59
2023-03-20T14:10:38.411Z,100812.50
2023-03-20T14:13:13.809Z,100813.28
2023-03-20T14:15:49.086Z,100814.16
2023-03-20T14:18:19.926Z,100814.81
2023-03-20T14:20:56.664Z,100813.28
2023-03-20T14:23:37.737Z,100796.25
2023-03-20T14:26:11.625Z,100809.34
2023-03-20T14:28:54.277Z,100798.97
2023-03-20T14:31:26.293Z,100804.66
2023-03-20T14:34:08.188Z,100807.91
2023-03-20T14:36:53.148Z,100801.47
2023-03-20T14:39:34.639Z,100743.75
2023-03-20T14:42:23.765Z,100805.06
2023-03-20T14:45:17.501Z,100797.88
2023-03-20T14:47:52.562Z,100795.44
2023-03-20T14:50:27.855Z,100795.44
2023-03-20T14:53:14.821Z,100791.84
2023-03-20T14:55:53.345Z,100788.09
2023-03-20T14:58:49.021Z,100785.91
2023-03-20T15:01:26.486Z,100786.66
2023-03-20T15:03:59.083Z,100786.75
2023-03-20T15:06:29.796Z,100779.38
2023-03-20T15:09:01.210Z,100774.38
2023-03-20T15:11:30.804Z,100780.84
2023-03-20T15:14:04.396Z,100774.22
2023-03-20T15:16:35.005Z,100775.38
2023-03-20T15:19:08.144Z,100771.84
2023-03-20T15:21:45.408Z,100752.56
2023-03-20T15:24:23.171Z,100759.38
2023-03-20T15:26:55.571Z,100754.69
2023-03-20T15:29:26.023Z,100746.56
2023-03-20T15:32:12.986Z,100746.41
2023-03-20T15:34:44.522Z,100755.56
2023-03-20T15:37:17.562Z,100753.50
2023-03-20T15:39:48.787Z,100757.63
2023-03-20T15:42:22.350Z,100761.38
2023-03-20T15:44:56.855Z,100758.78
2023-03-20T15:47:27.275Z,100754.41
2023-03-20T15:49:58.699Z,100756.44
2023-03-20T15:55:47.095Z,100751.69
2023-03-20T15:58:16.997Z,100754.31
2023-03-20T16:00:49.867Z,100760.31
2023-03-20T16:03:22.339Z,100748.88
2023-03-20T16:05:53.135Z,100760.41
2023-03-20T16:08:25.858Z,100757.94
2023-03-20T16:11:00.597Z,100762.84
2023-03-20T16:13:37.128Z,100764.06
2023-03-20T16:16:14.988Z,100761.66
2023-03-20T16:18:46.751Z,100762.59
2023-03-20T16:21:22.965Z,100756.63
2023-03-20T16:23:54.697Z,100760.34
2023-03-20T16:26:25.802Z,100762.31
2023-03-20T16:28:58.065Z,100759.66
2023-03-20T16:31:31.882Z,100755.28
2023-03-20T16:34:01.296Z,100761.47
2023-03-20T16:36:31.899Z,100766.91
2023-03-20T16:39:08.284Z,100761.72
2023-03-20T16:41:38.810Z,100751.22
2023-03-20T16:44:12.807Z,100760.22
2023-03-20T16:46:58.995Z,100759.63
2023-03-20T16:50:30.112Z,100747.53
2023-03-20T16:52:59.811Z,100753.03
2023-03-20T16:55:31.512Z,100746.16
2023-03-20T16:58:02.159Z,100753.38
2023-03-20T17:00:33.637Z,100757.00
2023-03-20T17:03:13.731Z,100765.94
2023-03-20T17:05:52.144Z,100767.75
2023-03-20T17:08:29.847Z,100771.34
2023-03-20T17:11:01.600Z,100771.44
2023-03-20T17:13:30.398Z,100769.81
2023-03-20T17:16:03.546Z,100776.06
2023-03-20T17:18:35.987Z,100774.38
2023-03-20T17:21:04.880Z,100782.31
2023-03-20T17:23:36.723Z,100784.09
2023-03-20T17:26:05.756Z,100785.88
2023-03-20T17:28:37.294Z,100783.22
2023-03-20T17:31:06.493Z,100785.00
2023-03-20T17:33:36.771Z,100787.63
2023-03-20T17:36:06.951Z,100784.09
2023-03-20T17:38:35.823Z,100783.25
2023-03-20T17:41:04.543Z,100785.09
2023-03-20T17:43:33.518Z,100784.31
2023-03-20T17:46:02.417Z,100787.94
2023-03-20T17:48:31.227Z,100580.31
2023-03-20T17:51:02.572Z,100779.19
2023-03-20T17:53:31.610Z,100775.63
2023-03-20T17:56:00.426Z,100781.78
2023-03-20T17:58:29.356Z,100780.91
2023-03-20T18:00:58.169Z,100781.81
2023-03-20T18:03:27.167Z,100786.22
2023-03-20T18:05:56.702Z,100780.91
2023-03-20T18:08:27.078Z,100780.94
2023-03-20T18:10:56.792Z,100780.13
2023-03-20T18:13:28.592Z,100780.13
2023-03-20T18:15:59.721Z,100776.63
2023-03-20T18:18:28.700Z,100776.66
2023-03-20T18:20:57.631Z,100770.53
2023-03-20T18:23:28.144Z,100776.63
2023-03-20T18:25:56.966Z,100779.25
2023-03-20T18:28:26.117Z,100771.31
2023-03-20T18:30:55.150Z,100762.47
2023-03-20T18:33:27.686Z,100763.41
2023-03-20T18:35:57.003Z,100768.69
2023-03-20T18:38:33.099Z,100774.88
2023-03-20T18:41:02.145Z,100774.00
2023-03-20T18:43:32.612Z,100779.25
2023-03-20T18:46:01.621Z,100774.88
2023-03-20T18:48:31.165Z,100769.56
2023-03-20T18:51:01.815Z,100773.09
2023-03-20T18:53:32.071Z,100771.31
2023-03-20T18:56:01.748Z,100771.31
2023-03-20T18:58:31.737Z,100770.38
2023-03-20T19:01:01.642Z,100766.88
2023-03-20T19:03:30.630Z,100772.16
2023-03-20T19:06:00.146Z,100776.59
2023-03-20T19:08:30.197Z,100766.03
2023-03-20T19:11:00.499Z,100766.03
2023-03-20T19:13:29.356Z,100771.31
2023-03-20T19:15:58.227Z,100771.28
2023-03-20T19:18:28.076Z,100766.88
2023-03-20T19:20:58.046Z,100767.72
2023-03-20T19:23:29.029Z,100761.63
2023-03-20T19:26:00.738Z,100767.81
2023-03-20T19:28:40.702Z,100767.81
2023-03-20T19:31:10.971Z,100766.06
2023-03-20T19:33:40.880Z,100765.19
2023-03-20T19:36:24.471Z,100743.28
2023-03-20T19:38:53.578Z,100760.00
2023-03-20T19:41:23.839Z,100761.78
2023-03-20T19:43:55.394Z,100759.25
2023-03-20T19:46:39.284Z,100757.50
2023-03-20T19:49:18.072Z,100756.59
2023-03-20T19:51:48.000Z,100751.34
2023-03-20T19:54:17.078Z,100745.28
2023-03-20T19:56:47.381Z,100748.84
2023-03-20T19:59:17.055Z,100748.84
2023-03-20T20:01:46.985Z,100740.03
2023-03-20T20:04:16.646Z,100750.66
2023-03-20T20:06:47.460Z,100754.97
2023-03-20T20:09:18.118Z,100747.88
2023-03-20T20:11:48.293Z,100758.38
2023-03-20T20:14:17.211Z,100759.25
2023-03-20T20:16:47.291Z,100766.31
2023-03-20T20:19:16.345Z,100762.78
2023-03-20T20:24:34.034Z,100756.63
2023-03-20T20:27:16.939Z,100760.13
2023-03-20T20:29:52.208Z,100760.97
2023-03-20T20:32:24.572Z,100755.75
2023-03-20T20:40:32.682Z,100755.88
2023-03-20T20:43:09.706Z,100764.69
2023-03-20T20:45:40.822Z,100752.34
2023-03-20T20:48:10.332Z,100755.03
2023-03-20T20:50:40.831Z,100751.59
2023-03-20T20:53:09.523Z,100759.56
2023-03-20T20:55:38.555Z,100766.66
2023-03-20T20:58:08.819Z,100765.88
2023-03-20T21:00:50.095Z,100764.22
2023-03-20T21:03:22.004Z,100760.78
2023-03-20T21:05:51.153Z,100760.81
2023-03-20T21:08:19.869Z,100759.94
2023-03-20T21:10:49.551Z,100762.56
2023-03-20T21:13:20.468Z,100764.31
2023-03-20T21:15:58.544Z,100766.06
2023-03-20T21:18:27.405Z,100764.31
2023-03-20T21:21:03.813Z,100761.72
2023-03-20T21:23:32.337Z,100758.38
2023-03-20T21:26:01.642Z,100769.81
2023-03-20T21:28:31.703Z,100770.69
2023-03-20T21:33:49.133Z,100782.06
2023-03-20T21:36:18.175Z,100778.44
2023-03-20T21:39:06.807Z,100780.25
2023-03-20T21:41:35.885Z,100780.25
2023-03-20T21:44:06.411Z,100781.13
2023-03-20T21:52:54.477Z,100787.31
2023-03-20T21:55:48.273Z,100791.66
2023-03-20T22:01:21.658Z,100789.94
2023-03-20T22:04:19.032Z,100788.13
2023-03-20T22:07:24.045Z,100789.00
2023-03-20T22:12:49.893Z,100772.34
2023-03-20T22:18:28.785Z,100767.97
2023-03-20T22:21:29.544Z,100775.03
2023-03-20T22:29:39.317Z,100768.88
2023-03-20T22:44:07.632Z,100780.25
2023-03-20T22:46:09.971Z,100775.88
2023-03-20T22:48:43.186Z,100782.94
2023-03-20T22:51:13.804Z,100772.41
2023-03-20T22:53:42.564Z,100776.84
2023-03-20T22:56:13.009Z,100777.75
2023-03-20T22:58:41.744Z,100779.50
2023-03-20T23:01:13.955Z,100781.25
2023-03-20T23:03:43.882Z,100780.41
2023-03-20T23:06:21.060Z,100788.31
2023-03-20T23:08:55.529Z,100794.47
2023-03-20T23:11:31.514Z,100793.59
2023-03-20T23:14:03.826Z,100795.34
2023-03-20T23:16:37.101Z,100801.50
2023-03-20T23:19:05.857Z,100799.75
2023-03-20T23:21:36.137Z,100804.16
2023-03-20T23:24:05.210Z,100798.00
2023-03-20T23:26:33.949Z,100798.03
2023-03-20T23:29:03.461Z,100792.78
2023-03-20T23:31:32.237Z,100791.88
2023-03-20T23:34:01.125Z,100802.44
2023-03-20T23:36:37.797Z,100794.56
2023-03-20T23:39:10.751Z,100797.22
2023-03-20T23:44:28.790Z,100791.94
2023-03-20T23:46:57.764Z,100796.34
2023-03-20T23:49:27.416Z,100790.19
2023-03-20T23:51:56.176Z,100795.41
2023-03-20T23:54:26.345Z,100798.13
2023-03-20T23:56:55.037Z,100791.97
2023-03-20T23:59:23.797Z,100791.09
